createdAt,value
2023-02-22T00:04:47.762Z,61.4
2023-02-22T00:09:30.122Z,51.2
2023-02-22T00:14:56.655Z,66.2
2023-02-22T00:19:43.186Z,66.9
2023-02-22T00:24:49.595Z,73.4
2023-02-22T00:29:55.976Z,67.1
2023-02-22T00:35:02.373Z,75.3
2023-02-22T00:40:28.805Z,78.2
2023-02-22T00:45:15.145Z,92.7
2023-02-22T00:50:21.510Z,68.4
2023-02-22T00:55:27.896Z,76.1
2023-02-22T01:00:35.631Z,76.7
2023-02-22T01:05:42.102Z,91.2
2023-02-22T01:10:48.483Z,72.9
2023-02-22T01:15:54.874Z,69.0
2023-02-22T01:21:55.405Z,93.9
2023-02-22T01:26:42.737Z,71.4
2023-02-22T01:31:49.180Z,67.8
2023-02-22T01:36:55.501Z,85.8
2023-02-22T01:42:01.876Z,69.9
2023-02-22T01:47:28.451Z,80.1
2023-02-22T01:52:14.751Z,56.8
2023-02-22T01:57:21.248Z,65.3
2023-02-22T02:02:27.760Z,55.5
2023-02-22T02:07:34.243Z,79.2
2023-02-22T02:12:40.612Z,85.3
2023-02-22T02:17:36.958Z,60.3
2023-02-22T02:22:53.380Z,75.0
2023-02-22T02:30:12.205Z,82.8
2023-02-22T02:33:06.376Z,63.2
2023-02-22T02:38:12.766Z,71.6
2023-02-22T02:43:19.225Z,88.6
2023-02-22T02:48:49.687Z,66.9
2023-02-22T02:53:22.014Z,76.7
2023-02-22T02:58:38.397Z,71.8
2023-02-22T03:03:44.776Z,72.9
2023-02-22T03:09:51.298Z,84.9
2023-02-22T03:13:57.542Z,56.6
2023-02-22T03:19:06.091Z,81.7
2023-02-22T03:24:12.469Z,70.7
2023-02-22T03:29:42.987Z,58.2
2023-02-22T03:34:25.273Z,60.4
2023-02-22T03:39:31.646Z,62.7
2023-02-22T03:44:58.110Z,60.1
2023-02-22T03:49:44.588Z,61.9
2023-02-22T03:56:03.125Z,64.5
2023-02-22T04:00:36.484Z,69.8
2023-02-22T04:47:26.842Z,164.8
2023-02-22T04:52:34.190Z,100.5
2023-02-22T04:58:00.601Z,114.6
2023-02-22T05:02:46.985Z,88.6
2023-02-22T05:10:40.658Z,93.6
2023-02-22T05:13:23.772Z,71.2
2023-02-22T05:18:06.126Z,95.0
2023-02-22T05:23:32.546Z,69.3
2023-02-22T05:28:38.914Z,81.5
2023-02-22T05:33:25.278Z,78.3
2023-02-22T05:38:31.628Z,74.4
2023-02-22T05:43:38.009Z,84.8
2023-02-22T05:48:44.427Z,88.8
2023-02-22T05:54:14.836Z,92.8
2023-02-22T05:59:17.311Z,80.3
2023-02-22T06:04:27.692Z,136.6
2023-02-22T06:09:30.064Z,80.1
2023-02-22T06:14:16.437Z,93.0
2023-02-22T06:19:22.803Z,87.5
2023-02-22T06:24:29.210Z,82.3
2023-02-22T06:29:35.560Z,57.3
2023-02-22T06:34:42.075Z,197.7
2023-02-22T06:39:48.553Z,101.8
2023-02-22T06:44:55.005Z,83.0
2023-02-22T06:50:01.396Z,94.0
2023-02-22T06:55:07.787Z,64.7
2023-02-22T07:01:12.316Z,90.5
2023-02-22T07:05:54.578Z,80.9
2023-02-22T07:11:02.004Z,72.2
2023-02-22T07:16:08.381Z,42.6
2023-02-22T07:21:15.038Z,64.8
2023-02-22T07:26:45.187Z,48.9
2023-02-22T07:31:17.771Z,66.1
2023-02-22T07:36:23.968Z,47.4
2023-02-22T07:41:40.468Z,38.7
2023-02-22T07:47:04.444Z,49.7
2023-02-22T07:52:10.799Z,50.3
2023-02-22T07:56:53.137Z,96.5
2023-02-22T08:02:09.612Z,49.7
2023-02-22T08:07:15.910Z,85.4
2023-02-22T08:12:22.296Z,64.3
2023-02-22T08:17:28.701Z,41.9
2023-02-22T08:22:35.042Z,38.8
2023-02-22T08:32:52.608Z,42.8
2023-02-22T08:37:58.986Z,47.8
2023-02-22T08:43:09.368Z,44.6
2023-02-22T08:48:11.765Z,41.9
2023-02-22T08:53:18.111Z,34.8
2023-02-22T08:58:24.490Z,31.2
2023-02-22T09:03:30.959Z,32.8
2023-02-22T09:08:37.382Z,38.3
2023-02-22T09:13:43.873Z,53.4
2023-02-22T09:18:50.271Z,34.7
2023-02-22T09:23:56.799Z,36.3
2023-02-22T09:29:02.988Z,38.3
2023-02-22T09:34:33.433Z,27.1
2023-02-22T09:39:15.750Z,29.8
2023-02-22T09:44:22.422Z,38.6
2023-02-22T09:49:27.512Z,35.2
2023-02-22T09:55:09.098Z,46.6
2023-02-22T10:00:17.497Z,53.1
2023-02-22T10:05:25.022Z,40.8
2023-02-22T10:10:31.390Z,32.6
2023-02-22T10:15:37.746Z,38.5
2023-02-22T10:20:44.131Z,42.0
2023-02-22T10:25:50.565Z,43.1
2023-02-22T10:30:57.077Z,41.4
2023-02-22T10:36:03.284Z,41.2
2023-02-22T10:41:09.731Z,35.0
2023-02-22T10:46:20.112Z,44.8
2023-02-22T10:51:26.354Z,42.2
2023-02-22T10:56:32.750Z,36.1
2023-02-22T11:01:39.159Z,36.6
2023-02-22T11:06:45.536Z,37.5
2023-02-22T11:14:40.378Z,40.3
2023-02-22T11:17:42.386Z,33.8
2023-02-22T11:27:10.074Z,31.2
2023-02-22T11:33:51.767Z,40.0
2023-02-22T11:37:25.934Z,39.0
2023-02-22T11:43:32.436Z,34.5
2023-02-22T11:53:20.329Z,38.3
2023-02-22T11:58:47.732Z,44.5
2023-02-22T12:04:18.196Z,33.5
2023-02-22T12:09:08.556Z,33.2
2023-02-22T12:19:17.262Z,35.6
2023-02-22T12:23:17.732Z,24.4
2023-02-22T12:24:23.684Z,38.5
2023-02-22T12:31:07.311Z,30.7
2023-02-22T12:40:20.978Z,31.7
2023-02-22T12:45:05.754Z,27.8
2023-02-22T12:50:09.784Z,36.1
2023-02-22T12:55:16.225Z,44.1
2023-02-22T13:00:42.713Z,31.0
2023-02-22T13:05:29.071Z,35.7
2023-02-22T13:10:59.459Z,41.8
2023-02-22T13:18:02.124Z,34.0
2023-02-22T13:21:48.354Z,33.4
2023-02-22T13:25:54.624Z,34.9
2023-02-22T13:31:45.188Z,31.2
2023-02-22T13:39:19.520Z,35.1
2023-02-22T13:41:41.507Z,37.3
2023-02-22T13:46:43.880Z,37.8
2023-02-22T13:51:30.236Z,36.5
2023-02-22T13:58:08.927Z,34.1
2023-02-22T14:02:55.269Z,45.0
2023-02-22T14:07:09.606Z,34.4
2023-02-22T14:12:54.043Z,31.9
2023-02-22T14:17:37.986Z,31.9
2023-02-22T14:23:27.994Z,27.4
2023-02-22T14:28:35.404Z,30.4
2023-02-22T14:33:45.901Z,32.8
2023-02-22T14:38:47.201Z,29.2
2023-02-22T14:43:54.576Z,29.4
2023-02-22T14:49:04.058Z,33.7
2023-02-22T14:54:11.692Z,34.1
2023-02-22T14:59:56.195Z,36.9
2023-02-22T15:06:43.909Z,36.5
2023-02-22T15:11:11.191Z,40.0
2023-02-22T15:16:00.356Z,32.6
2023-02-22T15:21:07.941Z,35.0
2023-02-22T15:26:10.363Z,25.2
2023-02-22T15:42:49.225Z,37.2
2023-02-22T15:44:41.442Z,25.4
2023-02-22T15:47:55.685Z,29.3
2023-02-22T15:54:27.563Z,32.9
2023-02-22T15:58:11.535Z,28.0
2023-02-22T16:03:17.931Z,31.5
2023-02-22T16:09:23.417Z,28.5
2023-02-22T16:14:30.870Z,42.1
2023-02-22T16:19:13.151Z,47.8
2023-02-22T16:24:39.624Z,28.1
2023-02-22T16:29:30.030Z,30.1
2023-02-22T16:34:32.518Z,28.5
2023-02-22T16:40:06.552Z,34.7
2023-02-22T16:44:48.887Z,34.1
2023-02-22T16:49:55.316Z,33.5
2023-02-22T16:55:01.659Z,27.4
2023-02-22T17:00:32.092Z,30.5
2023-02-22T17:05:14.510Z,34.9
2023-02-22T17:11:02.920Z,40.5
2023-02-22T17:16:32.696Z,36.0
2023-02-22T17:21:39.001Z,35.4
2023-02-22T17:27:25.435Z,27.0
2023-02-22T17:31:31.757Z,30.9
2023-02-22T17:36:58.288Z,32.6
2023-02-22T17:42:04.660Z,36.1
2023-02-22T17:46:52.148Z,34.1
2023-02-22T17:51:58.751Z,31.4
2023-02-22T17:57:05.153Z,35.6
2023-02-22T18:02:11.566Z,33.2
2023-02-22T18:07:17.952Z,33.0
2023-02-22T18:12:44.460Z,31.7
2023-02-22T18:17:50.792Z,33.4
2023-02-22T18:22:37.130Z,31.9
2023-02-22T18:33:10.596Z,41.0
2023-02-22T18:37:57.938Z,30.2
2023-02-22T18:43:04.338Z,33.6
2023-02-22T18:48:10.697Z,28.3
2023-02-22T18:53:17.121Z,29.3
2023-02-22T18:59:34.632Z,37.5
2023-02-22T19:03:32.941Z,51.3
2023-02-22T19:08:39.416Z,29.5
2023-02-22T19:14:05.828Z,36.2
2023-02-22T19:19:37.290Z,39.7
2023-02-22T19:25:08.783Z,35.3
2023-02-22T19:30:11.185Z,29.7
2023-02-22T19:34:57.463Z,37.2
2023-02-22T19:40:03.830Z,35.1
2023-02-22T19:45:10.576Z,34.1
2023-02-22T19:51:56.851Z,40.4
2023-02-22T19:57:04.347Z,42.5
2023-02-22T20:02:10.898Z,40.2
2023-02-22T20:12:45.224Z,28.1
2023-02-22T20:17:31.678Z,34.6
2023-02-22T20:23:02.154Z,45.2
2023-02-22T20:33:15.416Z,39.4
2023-02-22T20:40:18.835Z,32.3
2023-02-22T20:43:05.978Z,32.9
2023-02-22T20:43:31.022Z,39.5
2023-02-22T20:49:43.472Z,41.5
2023-02-22T20:53:18.770Z,35.3
2023-02-22T20:59:09.394Z,38.3
2023-02-22T21:03:51.871Z,45.3
2023-02-22T21:10:50.511Z,46.5
2023-02-22T21:13:44.661Z,42.9
2023-02-22T21:20:15.144Z,35.1
2023-02-22T21:24:17.465Z,34.2
2023-02-22T21:32:12.206Z,35.5
2023-02-22T21:39:40.642Z,35.1
2023-02-22T21:40:10.685Z,46.6
2023-02-22T21:44:22.975Z,38.2
2023-02-22T21:49:53.422Z,35.6
2023-02-22T21:54:35.738Z,46.0
2023-02-22T21:59:42.112Z,46.7
2023-02-22T22:04:48.488Z,48.9
2023-02-22T22:11:07.038Z,48.8
2023-02-22T22:15:25.296Z,37.4
2023-02-22T22:20:31.775Z,50.1
2023-02-22T22:25:14.112Z,38.1
2023-02-22T22:31:44.806Z,46.5
2023-02-22T22:35:46.919Z,49.5
2023-02-22T22:40:57.305Z,55.4
2023-02-22T22:45:39.622Z,44.5
2023-02-22T22:50:46.217Z,68.8
2023-02-22T22:55:52.747Z,57.9
2023-02-22T23:02:23.292Z,70.1
2023-02-22T23:13:22.366Z,73.9
2023-02-22T23:18:53.766Z,61.1
2023-02-22T23:24:00.162Z,51.6
2023-02-22T23:28:42.533Z,64.4
2023-02-22T23:33:48.888Z,63.3
2023-02-22T23:38:55.274Z,53.7
2023-02-22T23:44:01.919Z,55.7
2023-02-22T23:49:08.390Z,59.5
2023-02-22T23:54:14.798Z,65.0
